sensor_id;sensor_type;location;lat;lon;timestamp;temperature;humidity
14006;DHT22;7078;51.542;7.314;2023-01-19T00:00:06;2.10;99.90
14006;DHT22;7078;51.542;7.314;2023-01-19T00:02:36;2.10;99.90
14006;DHT22;7078;51.542;7.314;2023-01-19T00:05:03;2.10;99.90
14006;DHT22;7078;51.542;7.314;2023-01-19T00:07:30;2.10;99.90
14006;DHT22;7078;51.542;7.314;2023-01-19T00:09:55;2.10;99.90
14006;DHT22;7078;51.542;7.314;2023-01-19T00:12:21;2.10;99.90
14006;DHT22;7078;51.542;7.314;2023-01-19T00:14:46;2.10;99.90
14006;DHT22;7078;51.542;7.314;2023-01-19T00:17:12;2.10;99.90
14006;DHT22;7078;51.542;7.314;2023-01-19T00:19:38;2.10;99.90
14006;DHT22;7078;51.542;7.314;2023-01-19T00:22:03;2.10;99.90
14006;DHT22;7078;51.542;7.314;2023-01-19T00:24:30;2.00;99.90
14006;DHT22;7078;51.542;7.314;2023-01-19T00:26:56;2.00;99.90
14006;DHT22;7078;51.542;7.314;2023-01-19T00:29:22;2.00;99.90
14006;DHT22;7078;51.542;7.314;2023-01-19T00:31:48;2.00;99.90
14006;DHT22;7078;51.542;7.314;2023-01-19T00:34:14;2.00;99.90
14006;DHT22;7078;51.542;7.314;2023-01-19T00:36:39;2.00;99.90
14006;DHT22;7078;51.542;7.314;2023-01-19T00:39:05;2.00;99.90
14006;DHT22;7078;51.542;7.314;2023-01-19T00:41:30;2.00;99.90
14006;DHT22;7078;51.542;7.314;2023-01-19T00:44:14;2.10;99.90
14006;DHT22;7078;51.542;7.314;2023-01-19T00:46:40;2.00;99.90
14006;DHT22;7078;51.542;7.314;2023-01-19T00:49:06;2.00;99.90
14006;DHT22;7078;51.542;7.314;2023-01-19T00:51:31;2.10;99.90
14006;DHT22;7078;51.542;7.314;2023-01-19T00:53:57;2.10;99.90
14006;DHT22;7078;51.542;7.314;2023-01-19T00:56:31;2.10;99.90
14006;DHT22;7078;51.542;7.314;2023-01-19T00:58:57;2.20;99.90
14006;DHT22;7078;51.542;7.314;2023-01-19T01:01:23;2.30;99.90
14006;DHT22;7078;51.542;7.314;2023-01-19T01:03:48;2.30;99.90
14006;DHT22;7078;51.542;7.314;2023-01-19T01:06:14;2.30;99.90
14006;DHT22;7078;51.542;7.314;2023-01-19T01:08:39;2.30;99.90
14006;DHT22;7078;51.542;7.314;2023-01-19T01:11:05;2.30;99.90
14006;DHT22;7078;51.542;7.314;2023-01-19T01:13:30;2.30;99.90
14006;DHT22;7078;51.542;7.314;2023-01-19T01:15:56;2.30;99.90
14006;DHT22;7078;51.542;7.314;2023-01-19T01:18:22;2.30;99.90
14006;DHT22;7078;51.542;7.314;2023-01-19T01:20:48;2.40;99.90
14006;DHT22;7078;51.542;7.314;2023-01-19T01:23:14;2.40;99.90
14006;DHT22;7078;51.542;7.314;2023-01-19T01:25:39;2.40;99.90
14006;DHT22;7078;51.542;7.314;2023-01-19T01:28:06;2.40;99.90
14006;DHT22;7078;51.542;7.314;2023-01-19T01:30:33;2.50;99.90
14006;DHT22;7078;51.542;7.314;2023-01-19T01:32:59;2.50;99.90
14006;DHT22;7078;51.542;7.314;2023-01-19T01:35:25;2.50;99.90
14006;DHT22;7078;51.542;7.314;2023-01-19T01:37:50;2.50;99.90
14006;DHT22;7078;51.542;7.314;2023-01-19T01:40:16;2.50;99.90
14006;DHT22;7078;51.542;7.314;2023-01-19T01:42:43;2.50;99.90
14006;DHT22;7078;51.542;7.314;2023-01-19T01:45:35;2.50;99.90
14006;DHT22;7078;51.542;7.314;2023-01-19T01:48:15;2.50;99.90
14006;DHT22;7078;51.542;7.314;2023-01-19T01:53:40;2.60;99.90
14006;DHT22;7078;51.542;7.314;2023-01-19T01:56:11;2.50;99.90
14006;DHT22;7078;51.542;7.314;2023-01-19T01:58:38;2.70;99.90
14006;DHT22;7078;51.542;7.314;2023-01-19T02:01:05;2.50;99.90
14006;DHT22;7078;51.542;7.314;2023-01-19T02:03:49;2.60;99.90
14006;DHT22;7078;51.542;7.314;2023-01-19T02:06:16;2.50;99.90
14006;DHT22;7078;51.542;7.314;2023-01-19T02:08:47;2.50;99.90
14006;DHT22;7078;51.542;7.314;2023-01-19T02:11:34;2.50;99.90
14006;DHT22;7078;51.542;7.314;2023-01-19T02:14:19;2.50;99.90
14006;DHT22;7078;51.542;7.314;2023-01-19T02:16:45;2.50;99.90
14006;DHT22;7078;51.542;7.314;2023-01-19T02:19:15;2.50;99.90
14006;DHT22;7078;51.542;7.314;2023-01-19T02:22:00;2.60;99.90
14006;DHT22;7078;51.542;7.314;2023-01-19T02:24:28;2.50;99.90
14006;DHT22;7078;51.542;7.314;2023-01-19T02:26:55;2.50;99.90
14006;DHT22;7078;51.542;7.314;2023-01-19T02:29:23;2.50;99.90
14006;DHT22;7078;51.542;7.314;2023-01-19T02:31:50;2.50;99.90
14006;DHT22;7078;51.542;7.314;2023-01-19T02:34:18;2.40;99.90
14006;DHT22;7078;51.542;7.314;2023-01-19T02:36:55;2.40;99.90
14006;DHT22;7078;51.542;7.314;2023-01-19T02:39:26;2.40;99.90
14006;DHT22;7078;51.542;7.314;2023-01-19T02:41:54;2.50;99.90
14006;DHT22;7078;51.542;7.314;2023-01-19T02:44:21;2.50;99.90
14006;DHT22;7078;51.542;7.314;2023-01-19T02:46:47;2.50;99.90
14006;DHT22;7078;51.542;7.314;2023-01-19T02:49:13;2.50;99.90
14006;DHT22;7078;51.542;7.314;2023-01-19T02:51:42;2.50;99.90
14006;DHT22;7078;51.542;7.314;2023-01-19T02:54:32;2.50;99.90
14006;DHT22;7078;51.542;7.314;2023-01-19T02:57:11;2.50;99.90
14006;DHT22;7078;51.542;7.314;2023-01-19T03:02:30;2.40;99.90
14006;DHT22;7078;51.542;7.314;2023-01-19T03:10:22;2.40;99.90
14006;DHT22;7078;51.542;7.314;2023-01-19T03:15:33;2.40;99.90
14006;DHT22;7078;51.542;7.314;2023-01-19T03:18:01;2.40;99.90
14006;DHT22;7078;51.542;7.314;2023-01-19T03:20:31;2.40;99.90
14006;DHT22;7078;51.542;7.314;2023-01-19T03:23:03;2.40;99.90
14006;DHT22;7078;51.542;7.314;2023-01-19T03:25:33;2.40;99.90
14006;DHT22;7078;51.542;7.314;2023-01-19T03:28:00;2.50;99.90
14006;DHT22;7078;51.542;7.314;2023-01-19T03:30:30;2.40;99.90
14006;DHT22;7078;51.542;7.314;2023-01-19T03:33:20;2.40;99.90
14006;DHT22;7078;51.542;7.314;2023-01-19T03:35:50;2.40;99.90
14006;DHT22;7078;51.542;7.314;2023-01-19T03:38:23;2.40;99.90
14006;DHT22;7078;51.542;7.314;2023-01-19T03:40:52;2.40;99.90
14006;DHT22;7078;51.542;7.314;2023-01-19T03:43:20;2.50;99.90
14006;DHT22;7078;51.542;7.314;2023-01-19T03:45:47;2.50;99.90
14006;DHT22;7078;51.542;7.314;2023-01-19T03:48:14;2.50;99.90
14006;DHT22;7078;51.542;7.314;2023-01-19T03:50:40;2.50;99.90
14006;DHT22;7078;51.542;7.314;2023-01-19T03:53:11;2.50;99.90
14006;DHT22;7078;51.542;7.314;2023-01-19T03:55:39;2.50;99.90
14006;DHT22;7078;51.542;7.314;2023-01-19T03:58:05;2.50;99.90
14006;DHT22;7078;51.542;7.314;2023-01-19T04:00:32;2.50;99.90
14006;DHT22;7078;51.542;7.314;2023-01-19T04:02:58;2.60;99.90
14006;DHT22;7078;51.542;7.314;2023-01-19T04:05:24;2.50;99.90
14006;DHT22;7078;51.542;7.314;2023-01-19T04:07:53;2.60;99.90
14006;DHT22;7078;51.542;7.314;2023-01-19T04:10:19;2.60;99.90
14006;DHT22;7078;51.542;7.314;2023-01-19T04:12:45;2.60;99.90
14006;DHT22;7078;51.542;7.314;2023-01-19T04:15:11;2.70;99.90
14006;DHT22;7078;51.542;7.314;2023-01-19T04:17:37;2.70;99.90
14006;DHT22;7078;51.542;7.314;2023-01-19T04:20:03;2.70;99.90
14006;DHT22;7078;51.542;7.314;2023-01-19T04:22:30;2.70;99.90
14006;DHT22;7078;51.542;7.314;2023-01-19T04:24:55;2.70;99.90
14006;DHT22;7078;51.542;7.314;2023-01-19T04:27:21;2.70;99.90
14006;DHT22;7078;51.542;7.314;2023-01-19T04:29:47;2.70;99.90
14006;DHT22;7078;51.542;7.314;2023-01-19T04:32:13;2.70;99.90
14006;DHT22;7078;51.542;7.314;2023-01-19T04:34:39;2.60;99.90
14006;DHT22;7078;51.542;7.314;2023-01-19T04:37:04;2.60;99.90
14006;DHT22;7078;51.542;7.314;2023-01-19T04:39:30;2.50;99.90
14006;DHT22;7078;51.542;7.314;2023-01-19T04:41:55;2.50;99.90
14006;DHT22;7078;51.542;7.314;2023-01-19T04:44:22;2.40;99.90
14006;DHT22;7078;51.542;7.314;2023-01-19T04:46:48;2.30;99.90
14006;DHT22;7078;51.542;7.314;2023-01-19T04:49:13;2.10;99.90
14006;DHT22;7078;51.542;7.314;2023-01-19T04:51:39;2.00;99.90
14006;DHT22;7078;51.542;7.314;2023-01-19T04:54:05;1.90;99.90
14006;DHT22;7078;51.542;7.314;2023-01-19T04:56:33;1.80;99.90
14006;DHT22;7078;51.542;7.314;2023-01-19T04:58:59;1.70;99.90
14006;DHT22;7078;51.542;7.314;2023-01-19T05:01:25;1.70;99.90
14006;DHT22;7078;51.542;7.314;2023-01-19T05:03:50;1.60;99.90
14006;DHT22;7078;51.542;7.314;2023-01-19T05:06:16;1.60;99.90
14006;DHT22;7078;51.542;7.314;2023-01-19T05:08:41;1.60;99.90
14006;DHT22;7078;51.542;7.314;2023-01-19T05:11:07;1.60;99.90
14006;DHT22;7078;51.542;7.314;2023-01-19T05:13:32;1.60;99.90
14006;DHT22;7078;51.542;7.314;2023-01-19T05:15:58;1.60;99.90
14006;DHT22;7078;51.542;7.314;2023-01-19T05:18:24;1.50;99.90
14006;DHT22;7078;51.542;7.314;2023-01-19T05:20:49;1.50;99.90
14006;DHT22;7078;51.542;7.314;2023-01-19T05:23:15;1.50;99.90
14006;DHT22;7078;51.542;7.314;2023-01-19T05:25:41;1.50;99.90
14006;DHT22;7078;51.542;7.314;2023-01-19T05:28:07;1.50;99.90
14006;DHT22;7078;51.542;7.314;2023-01-19T05:30:32;1.50;99.90
14006;DHT22;7078;51.542;7.314;2023-01-19T05:32:58;1.50;99.90
14006;DHT22;7078;51.542;7.314;2023-01-19T05:35:24;1.50;99.90
14006;DHT22;7078;51.542;7.314;2023-01-19T05:37:49;1.50;99.90
14006;DHT22;7078;51.542;7.314;2023-01-19T05:40:15;1.50;99.90
14006;DHT22;7078;51.542;7.314;2023-01-19T05:42:40;1.50;99.90
14006;DHT22;7078;51.542;7.314;2023-01-19T05:45:06;1.50;99.90
14006;DHT22;7078;51.542;7.314;2023-01-19T05:47:32;1.50;99.90
14006;DHT22;7078;51.542;7.314;2023-01-19T05:49:58;1.50;99.90
14006;DHT22;7078;51.542;7.314;2023-01-19T05:52:23;1.50;99.90
14006;DHT22;7078;51.542;7.314;2023-01-19T05:54:49;1.50;99.90
14006;DHT22;7078;51.542;7.314;2023-01-19T05:57:16;1.40;99.90
14006;DHT22;7078;51.542;7.314;2023-01-19T05:59:41;1.40;99.90
14006;DHT22;7078;51.542;7.314;2023-01-19T06:02:07;1.40;99.90
14006;DHT22;7078;51.542;7.314;2023-01-19T06:04:33;1.40;99.90
14006;DHT22;7078;51.542;7.314;2023-01-19T06:06:58;1.40;99.90
14006;DHT22;7078;51.542;7.314;2023-01-19T06:09:24;1.40;99.90
14006;DHT22;7078;51.542;7.314;2023-01-19T06:11:49;1.50;99.90
14006;DHT22;7078;51.542;7.314;2023-01-19T06:14:15;1.50;99.90
14006;DHT22;7078;51.542;7.314;2023-01-19T06:16:40;1.50;99.90
14006;DHT22;7078;51.542;7.314;2023-01-19T06:19:06;1.50;99.90
14006;DHT22;7078;51.542;7.314;2023-01-19T06:21:32;1.40;99.90
14006;DHT22;7078;51.542;7.314;2023-01-19T06:23:58;1.50;99.90
14006;DHT22;7078;51.542;7.314;2023-01-19T06:26:24;1.50;99.90
14006;DHT22;7078;51.542;7.314;2023-01-19T06:28:50;1.50;99.90
14006;DHT22;7078;51.542;7.314;2023-01-19T06:31:16;1.50;99.90
14006;DHT22;7078;51.542;7.314;2023-01-19T06:33:42;1.50;99.90
14006;DHT22;7078;51.542;7.314;2023-01-19T06:36:07;1.50;99.90
14006;DHT22;7078;51.542;7.314;2023-01-19T06:38:33;1.50;99.90
14006;DHT22;7078;51.542;7.314;2023-01-19T06:40:58;1.50;99.90
14006;DHT22;7078;51.542;7.314;2023-01-19T06:43:24;1.50;99.90
14006;DHT22;7078;51.542;7.314;2023-01-19T06:45:50;1.50;99.90
14006;DHT22;7078;51.542;7.314;2023-01-19T06:48:16;1.50;99.90
14006;DHT22;7078;51.542;7.314;2023-01-19T06:50:46;1.40;99.90
14006;DHT22;7078;51.542;7.314;2023-01-19T06:53:13;1.40;99.90
14006;DHT22;7078;51.542;7.314;2023-01-19T06:55:38;1.40;99.90
14006;DHT22;7078;51.542;7.314;2023-01-19T06:58:04;1.40;99.90
14006;DHT22;7078;51.542;7.314;2023-01-19T07:00:30;1.40;99.90
14006;DHT22;7078;51.542;7.314;2023-01-19T07:02:56;1.50;99.90
14006;DHT22;7078;51.542;7.314;2023-01-19T07:05:21;1.60;99.90
14006;DHT22;7078;51.542;7.314;2023-01-19T07:07:51;1.50;99.90
14006;DHT22;7078;51.542;7.314;2023-01-19T07:10:17;1.50;99.90
14006;DHT22;7078;51.542;7.314;2023-01-19T07:12:43;1.50;99.90
14006;DHT22;7078;51.542;7.314;2023-01-19T07:15:10;1.50;99.90
14006;DHT22;7078;51.542;7.314;2023-01-19T07:17:36;1.40;99.90
14006;DHT22;7078;51.542;7.314;2023-01-19T07:20:02;1.50;99.90
14006;DHT22;7078;51.542;7.314;2023-01-19T07:22:27;1.50;99.90
14006;DHT22;7078;51.542;7.314;2023-01-19T07:24:53;1.50;99.90
14006;DHT22;7078;51.542;7.314;2023-01-19T07:27:18;1.50;99.90
14006;DHT22;7078;51.542;7.314;2023-01-19T07:29:44;1.50;99.90
14006;DHT22;7078;51.542;7.314;2023-01-19T07:32:09;1.50;99.90
14006;DHT22;7078;51.542;7.314;2023-01-19T07:34:35;1.60;99.90
14006;DHT22;7078;51.542;7.314;2023-01-19T07:37:01;1.60;99.90
14006;DHT22;7078;51.542;7.314;2023-01-19T07:39:28;1.60;99.90
14006;DHT22;7078;51.542;7.314;2023-01-19T07:41:55;1.60;99.90
14006;DHT22;7078;51.542;7.314;2023-01-19T07:44:20;1.60;99.90
14006;DHT22;7078;51.542;7.314;2023-01-19T07:46:46;1.60;99.90
14006;DHT22;7078;51.542;7.314;2023-01-19T07:49:11;1.60;99.90
14006;DHT22;7078;51.542;7.314;2023-01-19T07:51:37;1.60;99.90
14006;DHT22;7078;51.542;7.314;2023-01-19T07:54:03;1.60;99.90
14006;DHT22;7078;51.542;7.314;2023-01-19T07:56:28;1.60;99.90
14006;DHT22;7078;51.542;7.314;2023-01-19T07:58:56;1.70;99.90
14006;DHT22;7078;51.542;7.314;2023-01-19T08:01:22;1.70;99.90
14006;DHT22;7078;51.542;7.314;2023-01-19T08:03:48;1.70;99.90
14006;DHT22;7078;51.542;7.314;2023-01-19T08:06:19;1.70;99.90
14006;DHT22;7078;51.542;7.314;2023-01-19T08:08:46;1.70;99.90
14006;DHT22;7078;51.542;7.314;2023-01-19T08:11:11;1.70;99.90
14006;DHT22;7078;51.542;7.314;2023-01-19T08:13:37;1.80;99.90
14006;DHT22;7078;51.542;7.314;2023-01-19T08:16:02;1.80;99.90
14006;DHT22;7078;51.542;7.314;2023-01-19T08:18:29;1.80;99.90
14006;DHT22;7078;51.542;7.314;2023-01-19T08:20:54;1.90;99.90
14006;DHT22;7078;51.542;7.314;2023-01-19T08:23:22;1.90;99.90
14006;DHT22;7078;51.542;7.314;2023-01-19T08:25:47;1.90;99.90
14006;DHT22;7078;51.542;7.314;2023-01-19T08:28:17;1.90;99.90
14006;DHT22;7078;51.542;7.314;2023-01-19T08:30:43;2.00;99.90
14006;DHT22;7078;51.542;7.314;2023-01-19T08:33:10;2.00;99.90
14006;DHT22;7078;51.542;7.314;2023-01-19T08:35:37;1.90;99.90
14006;DHT22;7078;51.542;7.314;2023-01-19T08:38:04;2.00;99.90
14006;DHT22;7078;51.542;7.314;2023-01-19T08:40:35;2.00;99.90
14006;DHT22;7078;51.542;7.314;2023-01-19T08:43:03;2.00;99.90
14006;DHT22;7078;51.542;7.314;2023-01-19T08:45:30;2.00;99.90
14006;DHT22;7078;51.542;7.314;2023-01-19T08:47:56;2.00;99.90
14006;DHT22;7078;51.542;7.314;2023-01-19T08:50:27;2.10;99.90
14006;DHT22;7078;51.542;7.314;2023-01-19T08:52:57;2.00;99.90
14006;DHT22;7078;51.542;7.314;2023-01-19T08:55:23;2.10;99.90
14006;DHT22;7078;51.542;7.314;2023-01-19T08:57:53;2.10;99.90
14006;DHT22;7078;51.542;7.314;2023-01-19T09:00:19;2.10;99.90
14006;DHT22;7078;51.542;7.314;2023-01-19T09:02:45;2.10;99.90
14006;DHT22;7078;51.542;7.314;2023-01-19T09:05:11;2.10;99.90
14006;DHT22;7078;51.542;7.314;2023-01-19T09:07:37;2.10;99.90
14006;DHT22;7078;51.542;7.314;2023-01-19T09:10:03;2.10;99.90
14006;DHT22;7078;51.542;7.314;2023-01-19T09:12:29;2.20;99.90
14006;DHT22;7078;51.542;7.314;2023-01-19T09:14:54;2.20;99.90
14006;DHT22;7078;51.542;7.314;2023-01-19T09:17:20;2.10;99.90
14006;DHT22;7078;51.542;7.314;2023-01-19T09:19:45;2.20;99.90
14006;DHT22;7078;51.542;7.314;2023-01-19T09:22:11;2.10;99.90
14006;DHT22;7078;51.542;7.314;2023-01-19T09:24:36;2.20;99.90
14006;DHT22;7078;51.542;7.314;2023-01-19T09:27:02;2.20;99.90
14006;DHT22;7078;51.542;7.314;2023-01-19T09:29:28;2.20;99.90
14006;DHT22;7078;51.542;7.314;2023-01-19T09:31:53;2.20;99.90
14006;DHT22;7078;51.542;7.314;2023-01-19T09:34:19;2.20;99.90
14006;DHT22;7078;51.542;7.314;2023-01-19T09:36:45;2.20;99.90
14006;DHT22;7078;51.542;7.314;2023-01-19T09:39:11;2.30;99.90
14006;DHT22;7078;51.542;7.314;2023-01-19T09:41:37;2.30;99.90
14006;DHT22;7078;51.542;7.314;2023-01-19T09:44:15;2.30;99.90
14006;DHT22;7078;51.542;7.314;2023-01-19T09:46:43;2.30;99.90
14006;DHT22;7078;51.542;7.314;2023-01-19T09:49:18;2.30;99.90
14006;DHT22;7078;51.542;7.314;2023-01-19T09:51:47;2.30;99.90
14006;DHT22;7078;51.542;7.314;2023-01-19T09:54:16;2.30;99.90
14006;DHT22;7078;51.542;7.314;2023-01-19T09:56:43;2.30;99.90
14006;DHT22;7078;51.542;7.314;2023-01-19T09:59:20;2.40;99.90
14006;DHT22;7078;51.542;7.314;2023-01-19T10:02:06;2.40;99.90
14006;DHT22;7078;51.542;7.314;2023-01-19T10:04:41;2.40;99.90
14006;DHT22;7078;51.542;7.314;2023-01-19T10:18:01;2.50;99.90
14006;DHT22;7078;51.542;7.314;2023-01-19T10:20:32;2.70;99.90
14006;DHT22;7078;51.542;7.314;2023-01-19T10:23:00;2.60;99.90
14006;DHT22;7078;51.542;7.314;2023-01-19T10:25:29;2.60;99.90
14006;DHT22;7078;51.542;7.314;2023-01-19T10:27:56;2.60;99.90
14006;DHT22;7078;51.542;7.314;2023-01-19T10:30:25;2.60;99.90
14006;DHT22;7078;51.542;7.314;2023-01-19T10:32:52;2.60;99.90
14006;DHT22;7078;51.542;7.314;2023-01-19T10:35:21;2.60;99.90
14006;DHT22;7078;51.542;7.314;2023-01-19T10:37:52;2.60;99.90
14006;DHT22;7078;51.542;7.314;2023-01-19T10:40:31;2.60;99.90
14006;DHT22;7078;51.542;7.314;2023-01-19T10:42:58;2.60;99.90
14006;DHT22;7078;51.542;7.314;2023-01-19T10:45:27;2.60;99.90
14006;DHT22;7078;51.542;7.314;2023-01-19T10:48:04;2.60;99.90
14006;DHT22;7078;51.542;7.314;2023-01-19T10:50:35;2.60;99.90
14006;DHT22;7078;51.542;7.314;2023-01-19T10:53:04;2.70;99.90
14006;DHT22;7078;51.542;7.314;2023-01-19T10:55:33;2.60;99.90
14006;DHT22;7078;51.542;7.314;2023-01-19T10:57:59;2.70;99.90
14006;DHT22;7078;51.542;7.314;2023-01-19T11:00:41;2.70;99.90
14006;DHT22;7078;51.542;7.314;2023-01-19T11:03:42;2.60;99.90
14006;DHT22;7078;51.542;7.314;2023-01-19T11:08:44;2.50;99.90
14006;DHT22;7078;51.542;7.314;2023-01-19T11:11:11;2.50;99.90
14006;DHT22;7078;51.542;7.314;2023-01-19T11:13:40;2.60;99.90
14006;DHT22;7078;51.542;7.314;2023-01-19T11:16:21;2.60;99.90
14006;DHT22;7078;51.542;7.314;2023-01-19T11:18:51;2.70;99.90
14006;DHT22;7078;51.542;7.314;2023-01-19T11:21:22;2.80;99.90
14006;DHT22;7078;51.542;7.314;2023-01-19T11:23:55;2.80;99.90
14006;DHT22;7078;51.542;7.314;2023-01-19T11:26:28;2.80;99.90
14006;DHT22;7078;51.542;7.314;2023-01-19T11:28:56;2.80;99.90
14006;DHT22;7078;51.542;7.314;2023-01-19T11:38:56;3.00;99.90
14006;DHT22;7078;51.542;7.314;2023-01-19T11:41:32;3.00;99.90
14006;DHT22;7078;51.542;7.314;2023-01-19T11:44:17;3.00;99.90
14006;DHT22;7078;51.542;7.314;2023-01-19T11:46:46;3.00;99.90
14006;DHT22;7078;51.542;7.314;2023-01-19T11:49:23;3.10;99.90
14006;DHT22;7078;51.542;7.314;2023-01-19T11:52:03;3.10;99.90
14006;DHT22;7078;51.542;7.314;2023-01-19T11:54:34;3.20;99.90
14006;DHT22;7078;51.542;7.314;2023-01-19T11:57:08;3.20;99.90
14006;DHT22;7078;51.542;7.314;2023-01-19T11:59:34;3.20;99.90
14006;DHT22;7078;51.542;7.314;2023-01-19T12:02:01;3.30;99.90
14006;DHT22;7078;51.542;7.314;2023-01-19T12:04:32;3.40;99.90
14006;DHT22;7078;51.542;7.314;2023-01-19T12:07:02;3.40;99.90
14006;DHT22;7078;51.542;7.314;2023-01-19T12:09:40;3.40;99.90
14006;DHT22;7078;51.542;7.314;2023-01-19T12:12:14;3.40;99.90
14006;DHT22;7078;51.542;7.314;2023-01-19T12:17:49;3.50;99.90
14006;DHT22;7078;51.542;7.314;2023-01-19T12:20:30;3.50;99.90
14006;DHT22;7078;51.542;7.314;2023-01-19T12:23:22;3.40;99.90
14006;DHT22;7078;51.542;7.314;2023-01-19T12:26:03;3.30;99.90
14006;DHT22;7078;51.542;7.314;2023-01-19T12:28:39;3.20;99.90
14006;DHT22;7078;51.542;7.314;2023-01-19T12:31:05;3.20;99.90
14006;DHT22;7078;51.542;7.314;2023-01-19T12:33:34;3.10;99.90
14006;DHT22;7078;51.542;7.314;2023-01-19T12:39:00;3.10;99.90
14006;DHT22;7078;51.542;7.314;2023-01-19T12:41:34;3.10;99.90
14006;DHT22;7078;51.542;7.314;2023-01-19T12:46:58;3.00;99.90
14006;DHT22;7078;51.542;7.314;2023-01-19T12:49:44;3.00;99.90
14006;DHT22;7078;51.542;7.314;2023-01-19T12:57:46;3.10;99.90
14006;DHT22;7078;51.542;7.314;2023-01-19T13:02:54;3.20;99.90
14006;DHT22;7078;51.542;7.314;2023-01-19T13:05:25;3.20;99.90
14006;DHT22;7078;51.542;7.314;2023-01-19T13:18:53;3.60;99.90
14006;DHT22;7078;51.542;7.314;2023-01-19T13:31:42;3.70;99.90
14006;DHT22;7078;51.542;7.314;2023-01-19T13:34:42;3.70;99.90
14006;DHT22;7078;51.542;7.314;2023-01-19T13:37:19;3.70;99.90
14006;DHT22;7078;51.542;7.314;2023-01-19T13:39:48;3.70;99.90
14006;DHT22;7078;51.542;7.314;2023-01-19T13:42:20;3.60;99.90
14006;DHT22;7078;51.542;7.314;2023-01-19T13:44:51;3.60;99.90
14006;DHT22;7078;51.542;7.314;2023-01-19T13:47:21;3.70;99.90
14006;DHT22;7078;51.542;7.314;2023-01-19T13:49:50;3.70;99.90
14006;DHT22;7078;51.542;7.314;2023-01-19T13:52:26;3.70;99.90
14006;DHT22;7078;51.542;7.314;2023-01-19T13:55:00;3.80;99.90
14006;DHT22;7078;51.542;7.314;2023-01-19T14:05:36;3.60;99.90
14006;DHT22;7078;51.542;7.314;2023-01-19T14:10:39;3.70;99.90
14006;DHT22;7078;51.542;7.314;2023-01-19T14:13:16;3.80;99.90
14006;DHT22;7078;51.542;7.314;2023-01-19T14:15:42;3.70;99.90
14006;DHT22;7078;51.542;7.314;2023-01-19T14:20:38;3.70;99.90
14006;DHT22;7078;51.542;7.314;2023-01-19T14:23:06;3.80;99.90
14006;DHT22;7078;51.542;7.314;2023-01-19T14:25:34;3.70;99.90
14006;DHT22;7078;51.542;7.314;2023-01-19T14:30:57;3.60;99.90
14006;DHT22;7078;51.542;7.314;2023-01-19T14:33:34;3.50;99.90
14006;DHT22;7078;51.542;7.314;2023-01-19T14:38:45;3.60;99.90
14006;DHT22;7078;51.542;7.314;2023-01-19T14:41:12;3.60;99.90
14006;DHT22;7078;51.542;7.314;2023-01-19T14:43:46;3.60;99.90
14006;DHT22;7078;51.542;7.314;2023-01-19T14:46:18;3.60;99.90
14006;DHT22;7078;51.542;7.314;2023-01-19T14:48:46;3.60;99.90
14006;DHT22;7078;51.542;7.314;2023-01-19T14:51:18;3.60;99.90
14006;DHT22;7078;51.542;7.314;2023-01-19T14:53:47;3.60;99.90
14006;DHT22;7078;51.542;7.314;2023-01-19T14:56:24;3.60;99.90
14006;DHT22;7078;51.542;7.314;2023-01-19T14:58:50;3.60;99.90
14006;DHT22;7078;51.542;7.314;2023-01-19T15:01:16;3.70;99.90
14006;DHT22;7078;51.542;7.314;2023-01-19T15:03:41;3.70;99.90
14006;DHT22;7078;51.542;7.314;2023-01-19T15:06:12;3.70;99.90
14006;DHT22;7078;51.542;7.314;2023-01-19T15:08:38;3.70;99.90
14006;DHT22;7078;51.542;7.314;2023-01-19T15:11:31;3.60;99.90
14006;DHT22;7078;51.542;7.314;2023-01-19T15:13:56;3.60;99.90
14006;DHT22;7078;51.542;7.314;2023-01-19T15:16:22;3.60;99.90
14006;DHT22;7078;51.542;7.314;2023-01-19T15:18:48;3.50;99.90
14006;DHT22;7078;51.542;7.314;2023-01-19T15:21:15;3.50;99.90
14006;DHT22;7078;51.542;7.314;2023-01-19T15:23:44;3.50;99.90
14006;DHT22;7078;51.542;7.314;2023-01-19T15:26:14;3.50;99.90
14006;DHT22;7078;51.542;7.314;2023-01-19T15:28:41;3.50;99.90
14006;DHT22;7078;51.542;7.314;2023-01-19T15:31:18;3.40;99.90
14006;DHT22;7078;51.542;7.314;2023-01-19T15:33:44;3.30;99.90
14006;DHT22;7078;51.542;7.314;2023-01-19T15:36:15;3.30;99.90
14006;DHT22;7078;51.542;7.314;2023-01-19T15:38:41;3.20;99.90
14006;DHT22;7078;51.542;7.314;2023-01-19T15:43:36;3.10;99.90
14006;DHT22;7078;51.542;7.314;2023-01-19T15:46:02;3.10;99.90
14006;DHT22;7078;51.542;7.314;2023-01-19T15:48:30;3.00;99.90
14006;DHT22;7078;51.542;7.314;2023-01-19T15:50:55;3.00;99.90
14006;DHT22;7078;51.542;7.314;2023-01-19T15:53:21;2.90;99.90
14006;DHT22;7078;51.542;7.314;2023-01-19T15:56:03;2.80;99.90
14006;DHT22;7078;51.542;7.314;2023-01-19T15:58:29;2.70;99.90
14006;DHT22;7078;51.542;7.314;2023-01-19T16:00:56;2.70;99.90
14006;DHT22;7078;51.542;7.314;2023-01-19T16:03:22;2.60;99.90
14006;DHT22;7078;51.542;7.314;2023-01-19T16:05:47;2.60;99.90
14006;DHT22;7078;51.542;7.314;2023-01-19T16:08:13;2.60;99.90
14006;DHT22;7078;51.542;7.314;2023-01-19T16:10:40;2.60;99.90
14006;DHT22;7078;51.542;7.314;2023-01-19T16:13:06;2.50;99.90
14006;DHT22;7078;51.542;7.314;2023-01-19T16:15:33;2.50;99.90
14006;DHT22;7078;51.542;7.314;2023-01-19T16:17:59;2.50;99.90
14006;DHT22;7078;51.542;7.314;2023-01-19T16:20:25;2.50;99.90
14006;DHT22;7078;51.542;7.314;2023-01-19T16:22:50;2.50;99.90
14006;DHT22;7078;51.542;7.314;2023-01-19T16:25:16;2.50;99.90
14006;DHT22;7078;51.542;7.314;2023-01-19T16:27:41;2.50;99.90
14006;DHT22;7078;51.542;7.314;2023-01-19T16:30:09;2.50;99.90
14006;DHT22;7078;51.542;7.314;2023-01-19T16:32:35;2.50;99.90
14006;DHT22;7078;51.542;7.314;2023-01-19T16:35:01;2.40;99.90
14006;DHT22;7078;51.542;7.314;2023-01-19T16:37:27;2.40;99.90
14006;DHT22;7078;51.542;7.314;2023-01-19T16:39:52;2.40;99.90
14006;DHT22;7078;51.542;7.314;2023-01-19T16:42:18;2.40;99.90
14006;DHT22;7078;51.542;7.314;2023-01-19T16:44:44;2.40;99.90
14006;DHT22;7078;51.542;7.314;2023-01-19T16:47:09;2.40;99.90
14006;DHT22;7078;51.542;7.314;2023-01-19T16:49:35;2.40;99.90
14006;DHT22;7078;51.542;7.314;2023-01-19T16:52:00;2.40;99.90
14006;DHT22;7078;51.542;7.314;2023-01-19T16:54:27;2.40;99.90
14006;DHT22;7078;51.542;7.314;2023-01-19T16:56:56;2.40;99.90
14006;DHT22;7078;51.542;7.314;2023-01-19T16:59:22;2.40;99.90
14006;DHT22;7078;51.542;7.314;2023-01-19T17:01:49;2.40;99.90
14006;DHT22;7078;51.542;7.314;2023-01-19T17:04:16;2.40;99.90
14006;DHT22;7078;51.542;7.314;2023-01-19T17:06:42;2.30;99.90
14006;DHT22;7078;51.542;7.314;2023-01-19T17:09:08;2.30;99.90
14006;DHT22;7078;51.542;7.314;2023-01-19T17:11:34;2.30;99.90
14006;DHT22;7078;51.542;7.314;2023-01-19T17:14:04;2.30;99.90
14006;DHT22;7078;51.542;7.314;2023-01-19T17:16:32;2.30;99.90
14006;DHT22;7078;51.542;7.314;2023-01-19T17:18:59;2.30;99.90
14006;DHT22;7078;51.542;7.314;2023-01-19T17:21:25;2.30;99.90
14006;DHT22;7078;51.542;7.314;2023-01-19T17:23:52;2.20;99.90
14006;DHT22;7078;51.542;7.314;2023-01-19T17:26:19;2.20;99.90
14006;DHT22;7078;51.542;7.314;2023-01-19T17:28:45;2.20;99.90
14006;DHT22;7078;51.542;7.314;2023-01-19T17:31:21;2.20;99.90
14006;DHT22;7078;51.542;7.314;2023-01-19T17:33:47;2.20;99.90
14006;DHT22;7078;51.542;7.314;2023-01-19T17:36:16;2.10;99.90
14006;DHT22;7078;51.542;7.314;2023-01-19T17:38:44;2.10;99.90
14006;DHT22;7078;51.542;7.314;2023-01-19T17:41:14;2.20;99.90
14006;DHT22;7078;51.542;7.314;2023-01-19T17:43:40;2.10;99.90